Time;durP1;ratioP1;P1;durP2;ratioP2;P2;SDS_P1;SDS_P2;PMS_P1;PMS_P2;Temp;Humidity;BMP_temperature;BMP_pressure;BME280_temperature;BME280_humidity;BME280_pressure;Samples;Min_cycle;Max_cycle;Signal;HPM_P1;HPM_P2
2024/01/10 00:00:39;;;;;;;6.38;2.53;;;;;;;3.59;100.00;99307.56;5002307;28;20088;-91
2024/01/10 00:03:04;;;;;;;7.00;2.90;;;;;;;3.14;100.00;99216.84;5007998;28;20049;-92
2024/01/10 00:05:30;;;;;;;10.70;2.95;;;;;;;3.38;100.00;99263.53;5008789;28;20538;-92
2024/01/10 00:07:56;;;;;;;4.93;2.30;;;;;;;3.21;100.00;99221.31;4993420;28;20046;-92
2024/01/10 00:10:24;;;;;;;7.63;2.95;;;;;;;3.46;100.00;99278.50;5011639;28;20053;-93
2024/01/10 00:12:49;;;;;;;5.75;2.50;;;;;;;3.01;100.00;99221.09;4989534;28;20045;-93
2024/01/10 00:15:15;;;;;;;6.78;3.30;;;;;;;3.27;100.00;99250.28;5011000;28;20042;-91
2024/01/10 00:17:41;;;;;;;4.60;2.42;;;;;;;3.43;100.00;99275.88;5006387;28;20506;-93
2024/01/10 00:20:10;;;;;;;5.82;2.20;;;;;;;3.84;100.00;99329.72;4996546;28;20128;-93
2024/01/10 00:22:36;;;;;;;5.43;2.28;;;;;;;3.14;100.00;99206.34;5002877;28;20091;-92
2024/01/10 00:25:02;;;;;;;3.92;2.13;;;;;;;3.23;100.00;99209.06;4994680;28;20041;-92
2024/01/10 00:27:29;;;;;;;5.53;2.53;;;;;;;3.77;100.00;99304.22;4990123;28;20554;-92
2024/01/10 00:29:56;;;;;;;7.15;2.80;;;;;;;3.68;100.00;99298.00;4992760;28;20041;-91
2024/01/10 00:32:22;;;;;;;6.82;2.55;;;;;;;3.64;100.00;99304.13;4990205;28;20042;-92
2024/01/10 00:34:48;;;;;;;3.72;1.90;;;;;;;3.19;100.00;99225.66;5026138;28;20100;-91
2024/01/10 00:37:14;;;;;;;7.43;2.80;;;;;;;3.40;100.00;99293.34;4995164;28;20088;-92
2024/01/10 00:39:39;;;;;;;5.45;2.33;;;;;;;2.81;100.00;99182.38;5010687;28;20141;-92
2024/01/10 00:42:05;;;;;;;9.65;3.75;;;;;;;3.07;100.00;99253.56;4991850;28;20073;-93
2024/01/10 00:44:32;;;;;;;5.72;3.15;;;;;;;3.49;100.00;99336.41;5006277;28;20038;-92
2024/01/10 00:46:58;;;;;;;5.63;2.63;;;;;;;2.82;100.00;99225.28;4988229;28;20039;-92
2024/01/10 00:49:24;;;;;;;9.55;3.85;;;;;;;3.62;100.00;99370.69;4991329;28;20484;-93
2024/01/10 00:51:50;;;;;;;6.35;3.13;;;;;;;3.32;100.00;99311.69;4989517;28;20042;-92
2024/01/10 00:54:16;;;;;;;8.20;3.03;;;;;;;3.07;100.00;99274.59;4986254;28;20138;-92
2024/01/10 00:56:41;;;;;;;7.40;3.15;;;;;;;3.04;100.00;99261.44;5007957;28;20679;-92
2024/01/10 00:59:07;;;;;;;7.53;3.58;;;;;;;3.32;100.00;99309.06;5005934;28;20145;-91
2024/01/10 01:01:34;;;;;;;9.60;2.70;;;;;;;2.80;100.00;99212.16;4987220;28;20041;-92
2024/01/10 01:04:00;;;;;;;6.35;2.45;;;;;;;3.93;100.00;99371.03;4990863;28;20089;-92
2024/01/10 01:06:26;;;;;;;4.57;2.00;;;;;;;3.68;100.00;99339.19;5007627;28;20034;-91
2024/01/10 01:08:51;;;;;;;6.03;2.22;;;;;;;3.96;100.00;99373.66;4989083;28;20488;-92
2024/01/10 01:11:17;;;;;;;6.68;2.83;;;;;;;3.40;100.00;99295.97;4987115;28;20049;-92
2024/01/10 01:13:43;;;;;;;8.02;2.47;;;;;;;3.72;100.00;99348.00;5000583;28;20047;-92
2024/01/10 01:16:11;;;;;;;5.85;3.20;;;;;;;3.51;100.00;99315.34;4988179;28;20089;-92
2024/01/10 01:18:38;;;;;;;5.53;2.70;;;;;;;3.02;100.00;99225.50;4990465;28;20125;-90
2024/01/10 01:21:04;;;;;;;7.68;3.08;;;;;;;3.15;100.00;99256.31;4991272;28;20427;-93
2024/01/10 01:23:30;;;;;;;6.10;2.33;;;;;;;3.26;100.00;99270.44;4990216;28;20496;-91
2024/01/10 01:25:56;;;;;;;8.13;2.40;;;;;;;3.31;100.00;99272.22;5010221;28;20042;-93
2024/01/10 01:28:22;;;;;;;7.95;2.58;;;;;;;2.79;100.00;99178.84;5008608;28;20050;-93
2024/01/10 01:30:47;;;;;;;5.43;2.35;;;;;;;3.79;100.00;99350.69;5005791;28;20173;-93
2024/01/10 01:33:13;;;;;;;4.40;1.95;;;;;;;3.31;100.00;99270.47;5008601;28;20496;-91
2024/01/10 01:35:41;;;;;;;7.80;2.42;;;;;;;3.73;100.00;99345.41;4995198;28;20046;-92
2024/01/10 01:38:07;;;;;;;5.07;2.78;;;;;;;3.44;100.00;99298.66;4996063;28;20608;-93
2024/01/10 01:40:33;;;;;;;4.07;2.33;;;;;;;3.97;100.00;99389.47;5007384;28;20085;-92
2024/01/10 01:42:59;;;;;;;5.13;2.20;;;;;;;4.03;100.00;99389.50;5008586;28;20058;-91
2024/01/10 01:45:25;;;;;;;6.32;2.03;;;;;;;4.04;100.00;99386.03;5008375;28;20439;-93
2024/01/10 01:47:50;;;;;;;5.18;2.17;;;;;;;4.01;100.00;99385.09;4991353;28;20042;-92
2024/01/10 01:50:16;;;;;;;6.07;2.53;;;;;;;3.69;100.00;99339.22;4993691;28;20074;-92
2024/01/10 01:52:45;;;;;;;5.60;2.20;;;;;;;3.87;100.00;99375.34;5010514;28;20122;-93
2024/01/10 01:55:10;;;;;;;5.13;2.30;;;;;;;3.23;100.00;99265.16;4994097;28;20034;-93
2024/01/10 01:57:37;;;;;;;5.50;2.30;;;;;;;3.23;100.00;99265.16;4990868;28;20043;-92
2024/01/10 02:00:04;;;;;;;9.50;3.15;;;;;;;3.86;100.00;99373.59;4990147;28;20038;-93
2024/01/10 02:02:31;;;;;;;8.35;2.40;;;;;;;3.76;100.00;99352.44;5006080;28;20137;-92
2024/01/10 02:04:58;;;;;;;6.03;3.17;;;;;;;3.31;100.00;99259.97;5008748;28;20381;-91
2024/01/10 02:07:24;;;;;;;7.85;3.03;;;;;;;3.38;100.00;99263.53;5009665;28;20062;-92
2024/01/10 02:09:51;;;;;;;8.88;3.05;;;;;;;3.84;100.00;99322.69;5008162;28;20077;-93
2024/01/10 02:12:17;;;;;;;5.10;2.03;;;;;;;3.64;100.00;99287.44;4989576;28;20046;-93
2024/01/10 02:14:43;;;;;;;9.98;2.35;;;;;;;3.74;100.00;99293.66;4994812;28;20540;-93
2024/01/10 02:17:09;;;;;;;6.18;2.35;;;;;;;3.96;100.00;99345.59;4990703;28;20110;-91
2024/01/10 02:19:34;;;;;;;4.65;1.85;;;;;;;3.56;100.00;99263.72;4993063;28;20043;-90
2024/01/10 02:22:02;;;;;;;5.20;2.88;;;;;;;3.62;100.00;99268.13;5003344;28;20240;-92
2024/01/10 02:24:28;;;;;;;4.95;1.80;;;;;;;3.80;100.00;99310.38;5009411;28;20126;-93
2024/01/10 02:26:55;;;;;;;5.82;2.92;;;;;;;4.28;100.00;99387.97;4992115;28;20132;-92
2024/01/10 02:29:23;;;;;;;6.38;2.63;;;;;;;4.04;100.00;99336.03;4993031;28;20058;-92
2024/01/10 02:31:49;;;;;;;5.00;2.28;;;;;;;3.96;100.00;99329.81;4991835;28;20042;-92
2024/01/10 02:34:15;;;;;;;5.75;2.03;;;;;;;3.80;100.00;99293.72;4992592;28;20046;-92
2024/01/10 02:36:41;;;;;;;6.22;1.90;;;;;;;3.78;100.00;99280.56;5006695;28;20035;-93
2024/01/10 02:39:06;;;;;;;5.40;2.33;;;;;;;3.73;100.00;99269.13;4989157;28;20042;-92
2024/01/10 02:41:32;;;;;;;5.95;2.08;;;;;;;4.49;100.00;99386.41;4994021;28;20038;-92
2024/01/10 02:43:59;;;;;;;7.10;3.05;;;;;;;4.16;100.00;99343.13;4997778;28;20391;-91
2024/01/10 02:46:27;;;;;;;5.72;1.98;;;;;;;3.82;100.00;99292.88;5008815;28;20038;-93
2024/01/10 02:48:54;;;;;;;6.20;2.17;;;;;;;3.49;100.00;99252.25;4993092;28;20088;-92
2024/01/10 02:51:19;;;;;;;6.15;2.55;;;;;;;3.93;100.00;99316.63;4995906;28;20054;-93
2024/01/10 02:53:45;;;;;;;4.20;2.30;;;;;;;4.10;100.00;99343.09;5012072;28;20052;-91
2024/01/10 02:56:11;;;;;;;7.22;2.35;;;;;;;3.96;100.00;99300.88;5009589;28;20041;-92
2024/01/10 02:58:37;;;;;;;4.95;2.08;;;;;;;4.05;100.00;99314.09;4997309;28;20513;-92
2024/01/10 03:01:04;;;;;;;7.00;2.28;;;;;;;3.98;100.00;99301.75;5011601;28;20124;-92
2024/01/10 03:03:30;;;;;;;5.60;1.83;;;;;;;3.75;100.00;99259.47;5013531;28;20080;-92
2024/01/10 03:05:56;;;;;;;6.70;2.13;;;;;;;3.83;100.00;99294.63;4996520;28;20046;-90
2024/01/10 03:08:21;;;;;;;7.32;2.30;;;;;;;4.24;100.00;99375.66;4995795;28;20519;-93
2024/01/10 03:10:47;;;;;;;10.07;2.28;;;;;;;4.30;100.00;99365.19;5012198;28;20045;-93
2024/01/10 03:13:13;;;;;;;7.40;2.50;;;;;;;3.98;100.00;99319.31;5010027;28;20062;-91
2024/01/10 03:15:39;;;;;;;8.32;2.47;;;;;;;3.86;100.00;99292.03;5009010;28;20129;-92
2024/01/10 03:18:06;;;;;;;6.43;2.45;;;;;;;4.36;100.00;99374.00;5013606;28;20045;-91
2024/01/10 03:20:32;;;;;;;6.18;2.92;;;;;;;3.96;100.00;99294.72;5010785;28;20035;-93
2024/01/10 03:22:58;;;;;;;6.28;3.08;;;;;;;4.26;100.00;99328.28;4996437;28;20380;-93
2024/01/10 03:25:24;;;;;;;3.67;1.92;;;;;;;4.00;100.00;99278.09;5007875;28;20046;-93
2024/01/10 03:27:49;;;;;;;4.60;2.40;;;;;;;4.25;100.00;99340.59;5014000;28;20046;-94
2024/01/10 03:30:18;;;;;;;5.72;2.10;;;;;;;4.34;100.00;99337.13;5009151;28;20088;-93
2024/01/10 03:32:43;;;;;;;7.15;3.22;;;;;;;4.33;100.00;99365.19;4997269;28;20041;-92
2024/01/10 03:35:11;;;;;;;6.85;2.83;;;;;;;3.98;100.00;99293.00;4994182;28;20116;-92
2024/01/10 03:37:36;;;;;;;6.30;2.83;;;;;;;4.35;100.00;99352.06;4994012;28;20373;-93
2024/01/10 03:40:03;;;;;;;3.70;2.22;;;;;;;4.33;100.00;99327.47;5009141;28;20044;-93
2024/01/10 03:42:28;;;;;;;6.20;2.67;;;;;;;3.93;100.00;99273.66;4992588;28;20073;-93
2024/01/10 03:44:54;;;;;;;6.32;2.53;;;;;;;3.85;100.00;99265.69;4993156;28;20058;-94
2024/01/10 03:47:20;;;;;;;7.18;2.28;;;;;;;4.51;100.00;99375.00;5006658;28;20491;-93
2024/01/10 03:49:46;;;;;;;10.63;3.55;;;;;;;4.27;100.00;99337.94;5012521;28;20092;-91
2024/01/10 03:52:13;;;;;;;4.28;1.88;;;;;;;3.41;100.00;99216.25;5024667;28;20034;-93
2024/01/10 03:54:40;;;;;;;4.97;2.47;;;;;;;3.71;100.00;99257.72;4992208;28;20037;-92
2024/01/10 03:57:06;;;;;;;7.10;2.50;;;;;;;4.17;100.00;99329.09;5008474;28;20038;-93
2024/01/10 03:59:32;;;;;;;4.88;2.50;;;;;;;3.60;100.00;99260.25;4994271;28;20051;-93
2024/01/10 04:02:00;;;;;;;7.93;3.38;;;;;;;3.86;100.00;99294.66;4995086;28;20380;-92
2024/01/10 04:04:26;;;;;;;8.45;2.28;;;;;;;4.38;100.00;99380.16;5012275;28;20052;-92
2024/01/10 04:06:52;;;;;;;7.88;2.90;;;;;;;3.51;100.00;99241.72;5012811;28;20128;-91
2024/01/10 04:09:19;;;;;;;5.57;2.90;;;;;;;3.88;100.00;99318.34;5027763;28;20041;-92
2024/01/10 04:11:45;;;;;;;5.95;2.83;;;;;;;4.17;100.00;99362.47;5028276;28;20022;-93
2024/01/10 04:14:11;;;;;;;4.43;1.83;;;;;;;4.01;100.00;99309.69;5008752;28;20038;-93
2024/01/10 04:16:37;;;;;;;5.05;2.13;;;;;;;4.06;100.00;99315.00;4991021;28;20034;-91
2024/01/10 04:19:03;;;;;;;3.95;2.03;;;;;;;4.18;100.00;99341.38;4992260;28;20048;-93
2024/01/10 04:21:29;;;;;;;7.05;2.85;;;;;;;3.78;100.00;99288.44;5012190;28;20034;-92
2024/01/10 04:23:55;;;;;;;6.35;2.40;;;;;;;4.21;100.00;99359.84;5010180;28;20555;-93
2024/01/10 04:26:22;;;;;;;6.95;2.88;;;;;;;3.56;100.00;99247.06;5007959;28;20141;-91
2024/01/10 04:28:48;;;;;;;7.70;3.13;;;;;;;3.25;100.00;99184.56;5003737;28;20720;-92
2024/01/10 04:31:14;;;;;;;5.78;2.00;;;;;;;3.37;100.00;99199.56;5008410;28;20045;-92
2024/01/10 04:33:40;;;;;;;6.22;2.80;;;;;;;4.31;100.00;99385.38;5026928;28;20499;-92
2024/01/10 04:36:06;;;;;;;5.53;2.47;;;;;;;4.34;100.00;99371.38;4993104;28;20507;-91
2024/01/10 04:38:32;;;;;;;6.47;3.13;;;;;;;3.94;100.00;99326.28;5010599;28;20133;-91
2024/01/10 04:40:57;;;;;;;5.20;2.30;;;;;;;3.40;100.00;99223.22;5006999;28;20069;-92
2024/01/10 04:43:25;;;;;;;4.93;2.33;;;;;;;3.76;100.00;99292.81;4994531;28;20054;-92
2024/01/10 04:45:51;;;;;;;6.13;2.50;;;;;;;4.06;100.00;99344.81;5004996;28;20042;-92
2024/01/10 04:48:18;;;;;;;6.60;2.72;;;;;;;3.98;100.00;99332.47;5011665;28;20078;-93
2024/01/10 04:50:44;;;;;;;6.97;2.45;;;;;;;4.10;100.00;99351.00;5006204;28;20073;-93
2024/01/10 04:53:10;;;;;;;5.93;2.13;;;;;;;3.61;100.00;99240.97;4994175;28;20069;-93
2024/01/10 04:55:35;;;;;;;5.88;2.80;;;;;;;4.14;100.00;99339.59;5009385;28;20067;-93
2024/01/10 04:58:01;;;;;;;8.73;2.50;;;;;;;4.31;100.00;99361.66;4994443;28;20084;-92
2024/01/10 05:00:28;;;;;;;3.63;2.25;;;;;;;4.31;100.00;99368.69;4993895;28;20044;-92
2024/01/10 05:02:55;;;;;;;6.88;3.15;;;;;;;3.70;100.00;99271.72;4997488;28;20445;-92
2024/01/10 05:05:23;;;;;;;5.10;2.35;;;;;;;4.05;100.00;99306.19;4995470;28;20047;-92
2024/01/10 05:07:49;;;;;;;7.00;2.40;;;;;;;4.50;100.00;99372.34;4997537;28;20357;-92
2024/01/10 05:10:15;;;;;;;6.47;2.88;;;;;;;3.11;100.00;99161.66;5010424;28;20046;-91
2024/01/10 05:12:40;;;;;;;6.38;2.88;;;;;;;3.72;100.00;99264.72;5010202;28;20534;-92
2024/01/10 05:15:08;;;;;;;6.82;3.38;;;;;;;4.23;100.00;99355.47;5011530;28;20382;-93
2024/01/10 05:17:35;;;;;;;6.68;2.40;;;;;;;4.21;100.00;99344.06;4994390;28;20487;-91
2024/01/10 05:20:01;;;;;;;6.22;2.63;;;;;;;3.80;100.00;99284.09;4991970;28;20070;-92
2024/01/10 05:22:26;;;;;;;5.22;2.55;;;;;;;3.96;100.00;99310.50;4999830;28;20061;-93
2024/01/10 05:24:52;;;;;;;7.28;1.73;;;;;;;4.54;100.00;99395.22;4995358;28;20722;-92
2024/01/10 05:27:18;;;;;;;4.03;2.10;;;;;;;4.37;100.00;99354.69;5014243;28;20029;-93
2024/01/10 05:29:44;;;;;;;7.35;3.15;;;;;;;4.28;100.00;99376.56;4996761;28;20446;-92
2024/01/10 05:32:10;;;;;;;3.63;2.05;;;;;;;3.98;100.00;99304.38;5004555;28;20046;-90
2024/01/10 05:34:37;;;;;;;7.32;2.60;;;;;;;3.84;100.00;99285.00;5012577;28;20154;-90
2024/01/10 05:37:04;;;;;;;5.38;2.20;;;;;;;4.42;100.00;99389.84;5027050;28;20038;-92
2024/01/10 05:39:29;;;;;;;5.15;2.58;;;;;;;4.29;100.00;99373.06;5009890;28;20289;-93
2024/01/10 05:41:55;;;;;;;4.63;2.67;;;;;;;4.33;100.00;99365.19;4993454;28;20076;-93
2024/01/10 05:44:21;;;;;;;7.50;3.08;;;;;;;4.64;100.00;99411.94;4995268;28;20050;-93
2024/01/10 05:46:47;;;;;;;6.10;2.58;;;;;;;4.22;100.00;99332.66;4997525;28;20044;-93
2024/01/10 05:49:13;;;;;;;9.35;2.53;;;;;;;4.27;100.00;99341.47;5011996;28;20514;-93
2024/01/10 05:51:40;;;;;;;6.55;2.58;;;;;;;4.48;100.00;99379.34;5026687;28;20038;-92
2024/01/10 05:54:07;;;;;;;6.72;2.30;;;;;;;4.24;100.00;99309.84;4995076;28;20034;-93
2024/01/10 05:56:33;;;;;;;5.05;2.63;;;;;;;4.03;100.00;99272.84;5011420;28;20042;-93
2024/01/10 05:58:58;;;;;;;6.43;2.30;;;;;;;3.93;100.00;99255.25;5009297;28;20042;-92
2024/01/10 06:01:25;;;;;;;5.82;2.58;;;;;;;4.60;100.00;99374.19;5008982;28;20041;-94
2024/01/10 06:03:51;;;;;;;6.72;3.15;;;;;;;4.81;100.00;99423.47;5031666;28;20042;-91
2024/01/10 06:06:17;;;;;;;5.05;1.98;;;;;;;4.24;100.00;99312.47;5013365;28;20076;-92
2024/01/10 06:08:44;;;;;;;4.78;2.58;;;;;;;4.61;100.00;99364.53;4996173;28;20490;-93
2024/01/10 06:11:10;;;;;;;6.28;2.22;;;;;;;4.85;100.00;99409.44;5012497;28;20046;-95
2024/01/10 06:13:37;;;;;;;8.10;2.20;;;;;;;4.52;100.00;99353.03;5007569;28;20133;-93
2024/01/10 06:16:04;;;;;;;4.47;2.38;;;;;;;4.70;100.00;99386.53;5004468;28;20042;-91
2024/01/10 06:18:29;;;;;;;7.57;2.85;;;;;;;4.83;100.00;99416.47;5010713;28;20038;-92
2024/01/10 06:20:55;;;;;;;7.85;3.20;;;;;;;4.83;100.00;99420.88;5014149;28;20483;-91
2024/01/10 06:23:21;;;;;;;7.30;2.38;;;;;;;4.69;100.00;99383.91;5014567;28;20033;-93
2024/01/10 06:25:48;;;;;;;7.18;2.67;;;;;;;4.43;100.00;99349.50;5027290;28;20073;-94
2024/01/10 06:28:14;;;;;;;6.78;2.72;;;;;;;4.77;100.00;99402.38;4993150;28;20125;-91
2024/01/10 06:30:40;;;;;;;5.40;2.28;;;;;;;4.20;100.00;99310.69;4996405;28;20128;-92
2024/01/10 06:33:06;;;;;;;6.30;2.78;;;;;;;4.37;100.00;99331.88;5013224;28;20134;-91
2024/01/10 06:35:32;;;;;;;5.90;2.47;;;;;;;4.67;100.00;99391.78;5012828;28;20050;-92
2024/01/10 06:37:58;;;;;;;8.02;2.28;;;;;;;4.16;100.00;99314.16;5015125;28;20053;-94
2024/01/10 06:40:24;;;;;;;7.35;2.58;;;;;;;4.62;100.00;99382.06;5016337;28;20042;-92
2024/01/10 06:42:51;;;;;;;8.82;2.50;;;;;;;4.59;100.00;99376.78;5016359;28;20108;-93
2024/01/10 06:45:17;;;;;;;4.40;2.60;;;;;;;4.02;100.00;99289.50;5012447;28;20046;-93
2024/01/10 06:47:43;;;;;;;7.18;3.05;;;;;;;4.53;100.00;99380.25;4996488;28;20522;-91
2024/01/10 06:50:09;;;;;;;5.07;2.50;;;;;;;4.61;100.00;99397.00;5013059;28;20084;-93
2024/01/10 06:52:35;;;;;;;5.85;2.97;;;;;;;4.50;100.00;99372.34;5015181;28;20234;-91
2024/01/10 06:55:01;;;;;;;7.45;2.55;;;;;;;5.01;100.00;99449.06;4989305;28;20120;-92
2024/01/10 06:57:26;;;;;;;6.45;2.35;;;;;;;4.81;100.00;99381.31;5032508;28;20495;-95
2024/01/10 06:59:53;;;;;;;7.15;2.92;;;;;;;4.04;100.00;99270.22;5016200;28;20044;-93
2024/01/10 07:02:19;;;;;;;5.32;2.03;;;;;;;4.95;100.00;99423.59;4999555;28;20123;-96
2024/01/10 07:04:47;;;;;;;13.32;2.92;;;;;;;3.95;100.00;99267.53;5016236;28;20050;-94
2024/01/10 07:07:14;;;;;;;4.88;1.85;;;;;;;4.50;100.00;99354.78;5015848;28;20100;-94
2024/01/10 07:09:40;;;;;;;8.00;2.67;;;;;;;4.75;100.00;99399.75;4996411;28;20034;-92
2024/01/10 07:12:07;;;;;;;13.95;2.67;;;;;;;4.59;100.00;99375.03;5029272;28;20487;-92
2024/01/10 07:14:32;;;;;;;6.03;2.45;;;;;;;4.98;100.00;99443.81;4997813;28;20034;-93
2024/01/10 07:17:00;;;;;;;9.40;2.97;;;;;;;4.86;100.00;99429.69;5015533;28;20049;-93
2024/01/10 07:19:26;;;;;;;6.57;2.45;;;;;;;4.48;100.00;99356.53;5014611;28;20038;-92
2024/01/10 07:21:54;;;;;;;5.18;2.28;;;;;;;4.70;100.00;99389.16;5001795;28;20048;-94
2024/01/10 07:24:19;;;;;;;7.47;3.05;;;;;;;4.73;100.00;99425.19;4980699;28;20038;-93
2024/01/10 07:26:45;;;;;;;5.22;2.03;;;;;;;4.21;100.00;99322.13;4979776;28;20046;-95
2024/01/10 07:29:11;;;;;;;9.10;2.20;;;;;;;5.13;100.00;99460.59;5007548;28;20069;-93
2024/01/10 07:31:37;;;;;;;6.63;2.92;;;;;;;4.36;100.00;99329.22;5017120;28;20050;-93
2024/01/10 07:34:05;;;;;;;6.90;3.40;;;;;;;4.97;100.00;99456.09;5016023;28;20395;-93
2024/01/10 07:36:33;;;;;;;7.25;2.78;;;;;;;4.90;100.00;99420.03;5000439;28;20132;-93
2024/01/10 07:38:59;;;;;;;6.00;2.92;;;;;;;5.32;100.00;99492.34;5016113;28;20037;-94
2024/01/10 07:41:25;;;;;;;6.60;3.10;;;;;;;4.42;100.00;99363.50;4998634;28;20044;-93
2024/01/10 07:43:51;;;;;;;10.38;2.83;;;;;;;5.18;100.00;99486.97;5031897;28;20045;-93
2024/01/10 07:46:17;;;;;;;6.55;2.78;;;;;;;5.08;100.00;99450.91;4988624;28;20089;-94
2024/01/10 07:48:43;;;;;;;6.22;2.92;;;;;;;4.59;100.00;99350.47;5014006;28;20503;-93
2024/01/10 07:51:10;;;;;;;6.63;2.67;;;;;;;5.06;100.00;99429.78;4999416;28;20121;-94
2024/01/10 07:53:36;;;;;;;7.43;4.13;;;;;;;4.91;100.00;99406.84;5016925;28;20407;-93
2024/01/10 07:56:02;;;;;;;6.22;2.80;;;;;;;5.13;100.00;99433.34;5016790;28;20144;-93
2024/01/10 07:58:28;;;;;;;8.80;3.22;;;;;;;5.19;100.00;99456.25;5016700;28;20026;-94
2024/01/10 08:00:54;;;;;;;6.32;2.20;;;;;;;4.67;100.00;99338.22;4999693;28;20038;-93
2024/01/10 08:03:19;;;;;;;7.22;2.83;;;;;;;5.04;100.00;99404.31;5006338;28;20046;-94
2024/01/10 08:05:46;;;;;;;8.48;3.15;;;;;;;5.56;100.00;99476.63;4996538;28;20061;-94
2024/01/10 08:08:13;;;;;;;7.18;3.45;;;;;;;4.44;100.00;99294.16;4997485;28;20040;-93
2024/01/10 08:10:39;;;;;;;8.75;2.95;;;;;;;4.85;100.00;99391.00;4987947;28;20043;-93
2024/01/10 08:13:05;;;;;;;7.47;2.72;;;;;;;5.20;100.00;99428.97;4999277;28;20480;-94
2024/01/10 08:15:34;;;;;;;8.18;3.28;;;;;;;5.35;100.00;99452.78;5004770;28;20073;-94
2024/01/10 08:18:00;;;;;;;5.63;3.13;;;;;;;4.91;100.00;99369.09;4996418;28;20061;-92
2024/01/10 08:20:27;;;;;;;6.55;2.58;;;;;;;5.71;100.00;99498.69;4985341;28;20038;-96
2024/01/10 08:22:53;;;;;;;9.73;2.80;;;;;;;5.41;100.00;99428.22;5032119;28;20045;-95
2024/01/10 08:25:20;;;;;;;5.60;3.05;;;;;;;5.29;100.00;99407.94;5015646;28;20046;-94
2024/01/10 08:27:46;;;;;;;10.43;2.63;;;;;;;5.35;100.00;99393.00;5016032;28;20038;-94
2024/01/10 08:30:12;;;;;;;7.25;2.88;;;;;;;5.37;100.00;99413.25;4998340;28;20049;-92
2024/01/10 08:32:38;;;;;;;7.13;3.13;;;;;;;5.15;100.00;99378.88;5012285;28;20115;-92
2024/01/10 08:35:04;;;;;;;6.10;3.00;;;;;;;5.75;100.00;99471.44;4999486;28;20487;-93
2024/01/10 08:37:30;;;;;;;8.70;3.97;;;;;;;5.51;100.00;99452.00;5031480;28;20054;-93
2024/01/10 08:39:56;;;;;;;6.43;3.80;;;;;;;5.87;100.00;99507.53;4999816;28;20042;-93
2024/01/10 08:42:24;;;;;;;6.50;3.15;;;;;;;5.46;100.00;99435.25;5025566;28;20558;-91
2024/01/10 08:44:49;;;;;;;8.05;2.85;;;;;;;5.41;100.00;99428.22;4976300;28;20078;-93
2024/01/10 08:47:15;;;;;;;6.63;2.75;;;;;;;5.30;100.00;99421.13;4990605;28;20042;-93
2024/01/10 08:49:41;;;;;;;9.80;3.00;;;;;;;5.10;100.00;99370.94;4994411;28;20133;-92
2024/01/10 08:52:08;;;;;;;5.65;2.60;;;;;;;5.03;100.00;99340.16;5012486;28;20045;-93
2024/01/10 08:54:36;;;;;;;6.30;3.78;;;;;;;6.01;100.00;99483.84;5012815;28;20407;-94
2024/01/10 08:57:02;;;;;;;6.25;3.85;;;;;;;5.47;100.00;99408.00;4995133;28;20438;-92
2024/01/10 08:59:30;;;;;;;8.90;3.30;;;;;;;5.82;100.00;99464.44;4995124;28;20084;-92
2024/01/10 09:01:56;;;;;;;9.65;2.50;;;;;;;5.81;100.00;99491.69;5010040;28;20039;-93
2024/01/10 09:04:21;;;;;;;6.88;3.33;;;;;;;5.13;100.00;99365.66;4992516;28;20046;-94
2024/01/10 09:06:48;;;;;;;10.40;3.28;;;;;;;5.62;100.00;99417.75;4993571;28;20073;-94
2024/01/10 09:09:14;;;;;;;8.05;3.25;;;;;;;6.19;100.00;99498.88;4994677;28;20030;-94
2024/01/10 09:11:39;;;;;;;8.68;3.22;;;;;;;6.17;100.00;99497.09;4995918;28;20105;-93
2024/01/10 09:14:05;;;;;;;8.18;3.47;;;;;;;6.18;100.00;99511.22;4998758;28;20018;-94
2024/01/10 09:16:32;;;;;;;7.70;3.53;;;;;;;5.75;100.00;99437.13;4988958;28;20047;-93
2024/01/10 09:18:59;;;;;;;5.75;2.38;;;;;;;6.34;100.00;99510.34;4985374;28;20496;-94
2024/01/10 09:21:26;;;;;;;8.93;3.75;;;;;;;6.28;100.00;99496.25;4983216;28;20046;-93
2024/01/10 09:23:52;;;;;;;6.22;3.17;;;;;;;5.45;100.00;99390.44;4986135;28;20030;-94
2024/01/10 09:26:19;;;;;;;8.10;3.10;;;;;;;6.21;100.00;99511.22;4984917;28;20035;-92
2024/01/10 09:28:45;;;;;;;10.30;2.92;;;;;;;6.24;100.00;99508.56;5002420;28;20057;-94
2024/01/10 09:31:10;;;;;;;7.50;3.08;;;;;;;6.37;100.00;99544.69;5003173;28;20051;-92
2024/01/10 09:33:38;;;;;;;7.72;3.47;;;;;;;5.55;100.00;99394.84;4988979;28;20051;-94
2024/01/10 09:36:04;;;;;;;8.48;3.45;;;;;;;5.94;100.00;99482.91;4983394;28;20038;-93
2024/01/10 09:38:35;;;;;;;8.10;3.83;;;;;;;6.08;100.00;99502.38;4989132;28;20556;-94
2024/01/10 09:41:02;;;;;;;9.05;3.15;;;;;;;5.72;100.00;99423.91;4989727;28;20133;-95
2024/01/10 09:43:29;;;;;;;6.28;3.25;;;;;;;6.22;100.00;99512.06;4993156;28;20455;-93
2024/01/10 09:45:58;;;;;;;6.47;3.28;;;;;;;6.32;100.00;99490.97;4994221;28;20038;-93
2024/01/10 09:48:25;;;;;;;10.48;2.90;;;;;;;6.36;100.00;99463.69;5031305;28;20050;-94
2024/01/10 09:50:52;;;;;;;6.63;3.05;;;;;;;6.82;100.00;99535.97;5014554;28;20115;-94
2024/01/10 09:53:23;;;;;;;6.45;2.78;;;;;;;6.32;100.00;99398.53;5001399;28;20108;-93
2024/01/10 09:55:50;;;;;;;6.72;2.80;;;;;;;7.10;100.00;99526.25;5012133;28;20022;-93
2024/01/10 09:58:16;;;;;;;6.13;2.72;;;;;;;7.14;100.00;99494.50;5003900;28;20043;-93
2024/01/10 10:00:42;;;;;;;8.50;3.10;;;;;;;7.03;98.43;99480.44;5005882;28;20042;-91
2024/01/10 10:03:12;;;;;;;6.95;2.80;;;;;;;6.97;96.25;99449.56;4999584;28;20108;-93
2024/01/10 10:05:39;;;;;;;4.82;2.50;;;;;;;6.57;96.14;99378.28;5000717;28;20042;-93
2024/01/10 10:08:10;;;;;;;7.20;3.35;;;;;;;6.75;98.31;99438.16;4994050;28;20048;-94
2024/01/10 10:10:36;;;;;;;6.90;3.15;;;;;;;6.88;98.24;99493.66;5000237;28;20503;-92
2024/01/10 10:13:02;;;;;;;6.53;3.83;;;;;;;6.31;98.03;99388.84;5012619;28;20380;-93
2024/01/10 10:15:28;;;;;;;9.18;4.40;;;;;;;7.08;100.00;99520.97;5017326;28;20391;-93
2024/01/10 10:17:54;;;;;;;5.38;2.63;;;;;;;5.96;100.00;99358.03;5008396;28;20046;-93
2024/01/10 10:20:24;;;;;;;6.25;2.85;;;;;;;6.80;98.93;99459.28;4995975;28;20507;-94
2024/01/10 10:23:01;;;;;;;5.68;2.83;;;;;;;6.33;98.69;99358.03;5002637;28;20117;-93
2024/01/10 10:25:33;;;;;;;7.63;2.63;;;;;;;6.68;98.18;99399.41;5002311;28;20046;-92
2024/01/10 10:28:00;;;;;;;4.50;2.78;;;;;;;7.44;98.87;99510.31;5016825;28;20042;-91
2024/01/10 10:30:26;;;;;;;7.68;2.95;;;;;;;7.25;99.76;99475.09;5009587;28;20033;-91
2024/01/10 10:32:53;;;;;;;11.45;2.85;;;;;;;7.43;97.78;99475.03;4993301;28;20042;-91
2024/01/10 10:35:20;;;;;;;7.35;2.92;;;;;;;7.09;96.00;99394.88;5012818;28;20133;-90
2024/01/10 10:37:48;;;;;;;6.60;3.17;;;;;;;6.85;99.25;99423.13;4995651;28;20487;-89
2024/01/10 10:40:13;;;;;;;9.30;3.78;;;;;;;6.98;100.00;99467.22;4994218;28;20046;-89
2024/01/10 10:42:45;;;;;;;7.88;3.08;;;;;;;7.29;100.00;99490.09;5011662;28;20065;-91
2024/01/10 10:45:16;;;;;;;7.97;3.10;;;;;;;7.56;99.16;99481.16;5007841;28;20061;-91
2024/01/10 10:47:45;;;;;;;8.18;3.20;;;;;;;7.75;98.42;99487.28;5023377;28;20042;-90
2024/01/10 10:50:14;;;;;;;5.95;2.78;;;;;;;7.20;96.89;99404.56;4995052;28;20041;-90
2024/01/10 10:52:44;;;;;;;5.97;3.35;;;;;;;7.13;96.62;99405.44;5009213;28;20045;-90
2024/01/10 10:55:13;;;;;;;7.05;3.28;;;;;;;6.98;98.05;99393.19;4992397;28;20053;-90
2024/01/10 10:57:42;;;;;;;4.68;2.83;;;;;;;7.65;94.29;99467.88;5008949;28;20050;-91
2024/01/10 11:00:10;;;;;;;8.02;2.97;;;;;;;7.51;96.75;99461.78;5007534;28;20097;-90
2024/01/10 11:02:37;;;;;;;9.10;3.10;;;;;;;7.65;96.19;99467.03;5011188;28;20128;-90
2024/01/10 11:05:05;;;;;;;5.50;2.40;;;;;;;7.96;96.43;99481.88;4993929;28;20605;-90
2024/01/10 11:07:31;;;;;;;4.70;2.25;;;;;;;8.10;91.31;99476.50;5010780;28;20057;-89
2024/01/10 11:10:00;;;;;;;6.50;3.05;;;;;;;8.13;92.83;99462.34;5011615;28;20038;-90
2024/01/10 11:12:55;;;;;;;6.47;2.65;;;;;;;7.88;94.21;99464.28;4995643;28;20054;-91
2024/01/10 11:15:43;;;;;;;6.28;4.15;;;;;;;7.70;95.82;99470.50;5007601;28;20629;-91
2024/01/10 11:18:30;;;;;;;6.72;3.30;;;;;;;7.83;93.57;99464.31;5008298;28;20399;-89
2024/01/10 11:21:24;;;;;;;5.55;2.78;;;;;;;7.81;94.11;99429.00;5025238;28;20046;-90
2024/01/10 11:23:54;;;;;;;7.40;3.15;;;;;;;7.97;94.68;99467.75;5009837;28;20050;-89
2024/01/10 11:26:20;;;;;;;6.80;3.47;;;;;;;7.68;96.32;99411.44;4989049;28;20049;-91
2024/01/10 11:28:47;;;;;;;7.22;3.10;;;;;;;7.82;95.01;99441.34;4992568;28;20081;-91
2024/01/10 11:31:16;;;;;;;9.45;3.63;;;;;;;7.92;93.56;99426.31;4990648;28;20042;-90